createdAt,value
2018-12-27T00:00:16.613Z,74.50
2018-12-27T00:01:21.110Z,74.60
2018-12-27T00:02:25.583Z,74.50
2018-12-27T00:03:30.193Z,74.50
2018-12-27T00:04:35.276Z,74.50
2018-12-27T00:05:39.753Z,74.50
2018-12-27T00:06:44.231Z,74.40
2018-12-27T00:07:48.723Z,74.40
2018-12-27T00:08:53.232Z,74.40
2018-12-27T00:09:57.719Z,74.40
2018-12-27T00:11:02.203Z,74.50
2018-12-27T00:12:06.690Z,74.50
2018-12-27T00:13:11.353Z,74.50
2018-12-27T00:14:15.867Z,74.40
2018-12-27T00:15:20.410Z,74.40
2018-12-27T00:16:24.916Z,74.40
2018-12-27T00:17:29.381Z,74.30
2018-12-27T00:18:33.871Z,74.40
2018-12-27T00:19:38.530Z,74.50
2018-12-27T00:20:43.023Z,74.40
2018-12-27T00:21:47.551Z,74.50
2018-12-27T00:22:52.037Z,74.50
2018-12-27T00:23:56.509Z,74.50
2018-12-27T00:25:00.995Z,74.50
2018-12-27T00:26:05.473Z,74.40
2018-12-27T00:27:10.080Z,74.50
2018-12-27T00:28:14.576Z,74.60
2018-12-27T00:29:19.067Z,74.50
2018-12-27T00:30:23.867Z,74.50
2018-12-27T00:31:28.544Z,74.60
2018-12-27T00:32:33.463Z,74.50
2018-12-27T00:33:38.353Z,74.50
2018-12-27T00:34:43.016Z,74.50
2018-12-27T00:35:47.661Z,74.50
2018-12-27T00:36:52.309Z,74.60
2018-12-27T00:37:57.056Z,74.40
2018-12-27T00:39:01.680Z,74.40
2018-12-27T00:40:06.346Z,74.20
2018-12-27T00:41:10.998Z,74.30
2018-12-27T00:42:15.630Z,74.20
2018-12-27T00:43:20.308Z,74.20
2018-12-27T00:44:24.943Z,74.20
2018-12-27T00:45:29.574Z,74.10
2018-12-27T00:46:34.231Z,74.20
2018-12-27T00:47:38.856Z,74.50
2018-12-27T00:48:43.536Z,74.20
2018-12-27T00:49:48.176Z,74.20
2018-12-27T00:50:52.811Z,74.30
2018-12-27T00:51:57.449Z,74.20
2018-12-27T00:53:02.124Z,74.30
2018-12-27T00:54:06.835Z,74.40
2018-12-27T00:55:11.480Z,74.50
2018-12-27T00:56:16.112Z,74.40
2018-12-27T00:57:20.810Z,74.50
2018-12-27T00:58:25.467Z,74.60
2018-12-27T00:59:30.114Z,74.60
2018-12-27T01:00:34.775Z,74.80
2018-12-27T01:01:39.434Z,74.60
2018-12-27T01:02:44.069Z,74.70
2018-12-27T01:03:48.710Z,74.70
2018-12-27T01:04:53.384Z,74.70
2018-12-27T01:05:58.023Z,74.70
2018-12-27T01:07:02.734Z,74.70
2018-12-27T01:08:07.360Z,74.70
2018-12-27T01:09:11.999Z,74.70
2018-12-27T01:10:16.712Z,74.70
2018-12-27T01:11:21.357Z,74.70
2018-12-27T01:12:25.991Z,74.60
2018-12-27T01:13:30.650Z,74.70
2018-12-27T01:14:35.336Z,74.70
2018-12-27T01:15:40.438Z,74.70
2018-12-27T01:16:45.076Z,74.50
2018-12-27T01:17:49.705Z,74.60
2018-12-27T01:18:54.339Z,74.50
2018-12-27T01:19:58.971Z,74.60
2018-12-27T01:21:03.624Z,74.60
2018-12-27T01:22:08.240Z,74.60
2018-12-27T01:23:12.894Z,75.40
2018-12-27T01:24:17.536Z,74.80
2018-12-27T01:25:22.158Z,74.70
2018-12-27T01:26:26.798Z,74.70
2018-12-27T01:27:31.432Z,74.70
2018-12-27T01:28:36.201Z,74.80
2018-12-27T01:29:40.914Z,74.80
2018-12-27T01:30:45.569Z,74.90
2018-12-27T01:31:50.649Z,74.90
2018-12-27T01:32:55.511Z,75.10
2018-12-27T01:34:00.185Z,75.00
2018-12-27T01:35:05.572Z,75.00
2018-12-27T01:36:10.185Z,75.00
2018-12-27T01:37:14.826Z,75.00
2018-12-27T01:38:19.533Z,75.00
2018-12-27T01:39:24.229Z,74.90
2018-12-27T01:40:28.851Z,75.00
2018-12-27T01:41:33.502Z,75.10
2018-12-27T01:42:38.178Z,75.10
2018-12-27T01:43:42.839Z,74.90
2018-12-27T01:44:47.471Z,75.00
2018-12-27T01:45:52.198Z,74.90
2018-12-27T01:46:56.854Z,74.90
2018-12-27T01:48:01.513Z,75.00
2018-12-27T01:49:06.193Z,75.00
2018-12-27T01:50:12.236Z,75.00
2018-12-27T01:51:16.926Z,75.00
2018-12-27T01:52:21.566Z,75.00
2018-12-27T01:53:26.186Z,75.70
2018-12-27T01:54:30.823Z,75.10
2018-12-27T01:55:35.442Z,75.00
2018-12-27T01:56:40.124Z,75.00
2018-12-27T01:57:44.749Z,75.00
2018-12-27T01:58:49.488Z,75.10
2018-12-27T01:59:54.149Z,75.00
2018-12-27T02:00:58.785Z,75.00
2018-12-27T02:02:03.515Z,75.00
2018-12-27T02:03:08.151Z,74.80
2018-12-27T02:04:12.814Z,74.90
2018-12-27T02:05:17.439Z,74.80
2018-12-27T02:06:22.070Z,74.70
2018-12-27T02:07:26.714Z,74.70
2018-12-27T02:08:31.356Z,74.60
2018-12-27T02:09:36.001Z,74.40
2018-12-27T02:10:40.627Z,74.40
2018-12-27T02:11:45.267Z,74.40
2018-12-27T02:12:49.931Z,74.40
2018-12-27T02:13:54.580Z,74.30
2018-12-27T02:14:59.735Z,74.20
2018-12-27T02:16:04.368Z,74.10
2018-12-27T02:17:09.010Z,74.10
2018-12-27T02:18:13.696Z,74.10
2018-12-27T02:19:18.576Z,74.10
2018-12-27T02:20:23.210Z,74.10
2018-12-27T02:21:32.333Z,74.20
2018-12-27T02:22:38.617Z,74.00
2018-12-27T02:23:43.369Z,74.00
2018-12-27T02:24:47.986Z,74.00
2018-12-27T02:25:52.651Z,74.00
2018-12-27T02:26:57.360Z,74.00
2018-12-27T02:28:02.048Z,74.00
2018-12-27T02:29:07.006Z,74.10
2018-12-27T02:30:11.627Z,74.20
2018-12-27T02:31:16.281Z,74.10
2018-12-27T02:32:20.904Z,74.10
2018-12-27T02:33:25.561Z,74.10
2018-12-27T02:34:30.223Z,74.10
2018-12-27T02:35:34.865Z,74.10
2018-12-27T02:36:39.481Z,74.10
2018-12-27T02:37:44.136Z,74.20
2018-12-27T02:38:48.775Z,74.10
2018-12-27T02:39:53.415Z,74.00
2018-12-27T02:40:58.095Z,74.00
2018-12-27T02:42:02.778Z,74.00
2018-12-27T02:43:07.421Z,74.10
2018-12-27T02:44:12.052Z,74.00
2018-12-27T02:45:16.695Z,73.90
2018-12-27T02:46:21.348Z,73.90
2018-12-27T02:47:25.996Z,73.80
2018-12-27T02:48:30.626Z,73.90
2018-12-27T02:49:35.260Z,73.80
2018-12-27T02:50:57.914Z,73.90
2018-12-27T02:52:02.545Z,73.90
2018-12-27T02:53:07.183Z,74.00
2018-12-27T02:54:11.814Z,74.00
2018-12-27T02:55:16.737Z,74.00
2018-12-27T02:56:21.386Z,74.10
2018-12-27T02:57:26.009Z,74.00
2018-12-27T02:58:30.721Z,74.30
2018-12-27T02:59:35.341Z,74.10
2018-12-27T03:00:39.987Z,74.20
2018-12-27T03:01:44.621Z,74.30
2018-12-27T03:02:49.289Z,74.20
2018-12-27T03:03:53.970Z,74.20
2018-12-27T03:04:58.619Z,74.30
2018-12-27T03:06:03.245Z,74.20
2018-12-27T03:07:07.865Z,74.20
2018-12-27T03:08:12.519Z,74.30
2018-12-27T03:09:17.147Z,74.30
2018-12-27T03:10:21.801Z,74.30
2018-12-27T03:11:26.447Z,74.30
2018-12-27T03:12:31.089Z,74.30
2018-12-27T03:13:35.712Z,74.40
2018-12-27T03:14:40.411Z,74.30
2018-12-27T03:15:45.079Z,74.30
2018-12-27T03:16:49.740Z,74.30
2018-12-27T03:17:54.369Z,74.40
2018-12-27T03:18:58.999Z,74.30
2018-12-27T03:20:03.727Z,74.30
2018-12-27T03:21:08.452Z,74.30
2018-12-27T03:22:13.065Z,74.30
2018-12-27T03:23:17.723Z,74.30
2018-12-27T03:24:22.412Z,74.30
2018-12-27T03:25:27.067Z,74.30
2018-12-27T03:26:31.702Z,74.30
2018-12-27T03:27:36.401Z,74.30
2018-12-27T03:28:41.026Z,74.20
2018-12-27T03:29:45.948Z,74.20
2018-12-27T03:30:50.594Z,74.20
2018-12-27T03:31:55.322Z,74.20
2018-12-27T03:32:59.974Z,74.10
2018-12-27T03:34:04.605Z,74.10
2018-12-27T03:35:09.275Z,74.30
2018-12-27T03:36:13.908Z,74.10
2018-12-27T03:37:18.526Z,74.10
2018-12-27T03:38:23.410Z,74.30
2018-12-27T03:39:28.114Z,74.30
2018-12-27T03:40:32.778Z,75.00
2018-12-27T03:41:37.426Z,74.10
2018-12-27T03:42:42.045Z,74.20
2018-12-27T03:43:46.686Z,74.00
2018-12-27T03:44:51.336Z,74.10
2018-12-27T03:45:55.978Z,74.10
2018-12-27T03:47:00.618Z,74.20
2018-12-27T03:48:05.247Z,74.10
2018-12-27T03:49:09.908Z,74.10
2018-12-27T03:50:14.521Z,74.00
2018-12-27T03:51:19.184Z,74.00
2018-12-27T03:52:23.810Z,74.00
2018-12-27T03:53:28.438Z,74.00
2018-12-27T03:54:33.084Z,73.90
2018-12-27T03:55:37.794Z,73.90
2018-12-27T03:56:42.507Z,73.80
2018-12-27T03:57:47.147Z,73.90
2018-12-27T03:58:51.861Z,73.90
2018-12-27T03:59:56.508Z,73.90
2018-12-27T04:01:01.131Z,73.90
2018-12-27T04:02:05.750Z,73.90
2018-12-27T04:03:10.426Z,73.90
2018-12-27T04:04:15.070Z,73.90
2018-12-27T04:05:19.768Z,74.00
2018-12-27T04:06:24.415Z,74.00
2018-12-27T04:07:29.048Z,74.00
2018-12-27T04:08:33.682Z,73.80
2018-12-27T04:09:38.348Z,73.90
2018-12-27T04:10:42.977Z,73.90
2018-12-27T04:11:47.611Z,73.90
2018-12-27T04:12:52.307Z,73.90
2018-12-27T04:13:57.005Z,74.00
2018-12-27T04:15:08.892Z,74.10
2018-12-27T04:16:13.400Z,74.10
2018-12-27T04:17:17.927Z,74.10
2018-12-27T04:18:22.442Z,74.00
2018-12-27T04:19:26.934Z,73.90
2018-12-27T04:20:31.411Z,73.90
2018-12-27T04:21:35.964Z,74.00
2018-12-27T04:22:40.443Z,74.10
2018-12-27T04:23:45.190Z,74.00
2018-12-27T04:24:49.989Z,74.10
2018-12-27T04:25:55.111Z,74.00
2018-12-27T04:26:59.584Z,74.10
2018-12-27T04:28:04.260Z,74.10
2018-12-27T04:29:08.811Z,74.00
2018-12-27T04:30:13.422Z,74.10
2018-12-27T04:31:18.958Z,74.00
2018-12-27T04:32:24.392Z,74.10
2018-12-27T04:33:30.027Z,73.90
2018-12-27T04:34:34.635Z,74.00
2018-12-27T04:35:39.268Z,74.00
2018-12-27T04:36:44.082Z,74.00
2018-12-27T04:37:48.546Z,73.80
2018-12-27T04:38:53.032Z,73.90
2018-12-27T04:39:57.524Z,73.80
2018-12-27T04:41:02.021Z,73.80
2018-12-27T04:42:06.571Z,73.90
2018-12-27T04:43:11.320Z,73.90
2018-12-27T04:44:16.096Z,73.90
2018-12-27T04:45:20.704Z,74.00
2018-12-27T04:46:25.204Z,73.90
2018-12-27T04:47:29.929Z,73.90
2018-12-27T04:48:34.407Z,73.90
2018-12-27T04:49:38.886Z,73.90
2018-12-27T04:50:43.381Z,73.90
2018-12-27T04:51:47.942Z,73.90
2018-12-27T04:52:52.434Z,73.90
2018-12-27T04:53:56.933Z,73.90
2018-12-27T04:55:01.401Z,74.00
2018-12-27T04:56:05.877Z,73.90
2018-12-27T04:57:10.361Z,73.90
2018-12-27T04:58:14.851Z,74.00
2018-12-27T04:59:19.367Z,73.90
2018-12-27T05:00:24.174Z,73.80
2018-12-27T05:01:28.643Z,73.70
2018-12-27T05:02:33.129Z,73.70
2018-12-27T05:03:38.938Z,73.80
2018-12-27T05:04:43.402Z,73.70
2018-12-27T05:05:47.879Z,73.60
2018-12-27T05:06:52.605Z,73.80
2018-12-27T05:07:57.083Z,73.70
2018-12-27T05:09:01.603Z,73.70
2018-12-27T05:10:06.073Z,73.70
2018-12-27T05:11:10.746Z,73.80
2018-12-27T05:12:15.252Z,73.80
2018-12-27T05:14:23.839Z,73.10
2018-12-27T05:15:28.320Z,73.80
2018-12-27T05:16:32.793Z,73.80
2018-12-27T05:17:37.359Z,73.80
2018-12-27T05:18:41.861Z,73.80
2018-12-27T05:19:46.375Z,73.80
2018-12-27T05:20:50.846Z,73.80
2018-12-27T05:21:55.658Z,74.60
2018-12-27T05:23:00.416Z,73.80
2018-12-27T05:24:04.910Z,73.90
2018-12-27T05:25:09.424Z,73.90
2018-12-27T05:26:13.983Z,73.90
2018-12-27T05:27:18.483Z,74.00
2018-12-27T05:28:22.961Z,74.10
2018-12-27T05:29:27.520Z,74.10
2018-12-27T05:30:32.259Z,74.10
2018-12-27T05:31:36.733Z,74.10
2018-12-27T05:32:41.217Z,74.10
2018-12-27T05:33:45.700Z,74.10
2018-12-27T05:34:50.232Z,74.00
2018-12-27T05:35:54.762Z,74.30
2018-12-27T05:36:59.254Z,74.00
2018-12-27T05:38:03.753Z,74.10
2018-12-27T05:39:08.237Z,74.10
2018-12-27T05:40:12.700Z,74.20
2018-12-27T05:41:17.191Z,74.20
2018-12-27T05:42:21.670Z,74.20
2018-12-27T05:43:26.153Z,74.20
2018-12-27T05:44:30.708Z,74.30
2018-12-27T05:45:35.169Z,74.20
2018-12-27T05:46:39.681Z,74.20
2018-12-27T05:47:44.236Z,74.30
2018-12-27T05:48:48.704Z,75.00
2018-12-27T05:49:53.189Z,74.30
2018-12-27T05:50:57.674Z,74.20
2018-12-27T05:52:02.260Z,74.10
2018-12-27T05:53:06.727Z,74.20
2018-12-27T05:54:11.209Z,74.20
2018-12-27T05:55:15.708Z,74.20
2018-12-27T05:56:20.178Z,74.30
2018-12-27T05:57:24.705Z,74.40
2018-12-27T05:58:29.185Z,74.30
2018-12-27T05:59:33.663Z,74.30
2018-12-27T06:00:38.170Z,74.30
2018-12-27T06:01:42.685Z,74.30
2018-12-27T06:02:47.283Z,74.30
2018-12-27T06:03:51.757Z,74.40
2018-12-27T06:04:56.245Z,74.30
2018-12-27T06:06:00.714Z,74.30
2018-12-27T06:07:05.191Z,74.30
2018-12-27T06:08:09.745Z,74.30
2018-12-27T06:09:14.219Z,74.30
2018-12-27T06:10:18.753Z,74.20
2018-12-27T06:11:23.303Z,74.20
2018-12-27T06:12:27.792Z,74.20
2018-12-27T06:13:32.298Z,74.30
2018-12-27T06:14:37.563Z,74.20
2018-12-27T06:15:42.030Z,74.20
2018-12-27T06:16:46.499Z,74.20
2018-12-27T06:17:50.976Z,74.20
2018-12-27T06:18:55.497Z,74.20
2018-12-27T06:19:59.991Z,74.20
2018-12-27T06:21:04.541Z,74.20
2018-12-27T06:22:09.002Z,74.30
2018-12-27T06:23:13.482Z,74.30
2018-12-27T06:24:18.003Z,74.30
2018-12-27T06:25:22.482Z,74.30
2018-12-27T06:26:26.973Z,74.20
2018-12-27T06:27:31.448Z,74.30
2018-12-27T06:28:35.929Z,74.20
2018-12-27T06:29:40.419Z,74.10
2018-12-27T06:30:44.913Z,74.00
2018-12-27T06:31:49.401Z,73.60
2018-12-27T06:32:53.955Z,73.90
2018-12-27T06:34:00.075Z,73.80
2018-12-27T06:35:04.622Z,73.70
2018-12-27T06:36:09.148Z,73.80
2018-12-27T06:37:13.639Z,73.80
2018-12-27T06:38:18.105Z,74.00
2018-12-27T06:39:22.633Z,73.90
2018-12-27T06:40:27.090Z,73.90
2018-12-27T06:41:31.558Z,73.90
2018-12-27T06:42:36.055Z,74.00
2018-12-27T06:43:40.565Z,74.00
2018-12-27T06:44:45.022Z,73.90
2018-12-27T06:45:49.546Z,74.00
2018-12-27T06:46:54.037Z,74.10
2018-12-27T06:47:58.607Z,74.10
2018-12-27T06:49:03.102Z,74.30
2018-12-27T06:50:07.576Z,74.30
2018-12-27T06:51:12.083Z,74.30
2018-12-27T06:52:16.571Z,74.20
2018-12-27T06:53:21.047Z,74.30
2018-12-27T06:54:25.519Z,74.30
2018-12-27T06:55:30.012Z,74.40
2018-12-27T06:56:34.574Z,74.30
2018-12-27T06:57:39.532Z,74.40
2018-12-27T06:58:44.021Z,74.50
2018-12-27T06:59:48.510Z,74.60
2018-12-27T07:00:53.053Z,74.80
2018-12-27T07:01:57.543Z,74.80
2018-12-27T07:03:02.059Z,74.90
2018-12-27T07:04:06.593Z,74.80
2018-12-27T07:05:11.078Z,74.90
2018-12-27T07:06:15.726Z,75.00
2018-12-27T07:07:20.201Z,75.00
2018-12-27T07:08:24.688Z,74.90
2018-12-27T07:09:29.182Z,74.90
2018-12-27T07:10:33.682Z,74.90
2018-12-27T07:11:38.168Z,74.90
2018-12-27T07:12:42.747Z,74.90
2018-12-27T07:13:47.249Z,74.90
2018-12-27T07:14:51.713Z,74.90
2018-12-27T07:15:56.195Z,74.80
2018-12-27T07:17:00.691Z,75.00
2018-12-27T07:18:05.169Z,75.00
2018-12-27T07:19:09.670Z,75.00
2018-12-27T07:20:14.140Z,75.10
2018-12-27T07:21:18.935Z,75.10
2018-12-27T07:22:23.416Z,75.00
2018-12-27T07:23:27.895Z,75.00
2018-12-27T07:24:32.422Z,75.10
2018-12-27T07:25:36.949Z,75.10
2018-12-27T07:26:41.460Z,75.20
2018-12-27T07:27:46.013Z,75.30
2018-12-27T07:28:50.486Z,75.20
2018-12-27T07:29:54.983Z,75.20
2018-12-27T07:30:59.465Z,75.40
2018-12-27T07:32:04.059Z,75.50
2018-12-27T07:33:08.528Z,75.30
2018-12-27T07:34:13.011Z,76.10
2018-12-27T07:35:20.582Z,75.40
2018-12-27T07:36:25.059Z,75.30
2018-12-27T07:37:29.691Z,75.30
2018-12-27T07:38:34.185Z,75.30
2018-12-27T07:39:38.734Z,75.40
2018-12-27T07:40:43.277Z,75.40
2018-12-27T07:41:47.768Z,75.30
2018-12-27T07:42:52.275Z,75.40
2018-12-27T07:43:56.738Z,75.40
2018-12-27T07:45:01.247Z,75.40
2018-12-27T07:46:10.885Z,75.50
2018-12-27T07:47:12.071Z,74.80
2018-12-27T07:48:16.558Z,75.60
2018-12-27T07:49:21.040Z,75.50
2018-12-27T07:50:25.514Z,75.50
2018-12-27T07:51:30.008Z,75.60
2018-12-27T07:52:34.814Z,75.60
2018-12-27T07:53:39.287Z,75.60
2018-12-27T07:54:44.133Z,75.70
2018-12-27T07:55:49.918Z,75.80
2018-12-27T07:56:54.422Z,75.70
2018-12-27T07:57:58.901Z,75.80
2018-12-27T07:59:03.386Z,76.60
2018-12-27T08:00:07.884Z,75.90
2018-12-27T08:01:12.612Z,76.00
2018-12-27T08:02:17.299Z,76.00
2018-12-27T08:03:21.795Z,76.00
2018-12-27T08:04:26.280Z,76.20
2018-12-27T08:05:30.825Z,76.30
2018-12-27T08:06:35.294Z,76.40
2018-12-27T08:07:39.762Z,76.50
2018-12-27T08:08:44.272Z,76.60
2018-12-27T08:09:48.747Z,76.60
2018-12-27T08:10:53.225Z,76.60
2018-12-27T08:11:57.751Z,76.60
2018-12-27T08:13:02.293Z,76.80
2018-12-27T08:14:06.856Z,76.70
2018-12-27T08:15:11.344Z,76.70
2018-12-27T08:16:15.841Z,76.70
2018-12-27T08:17:20.391Z,76.80
2018-12-27T08:18:24.863Z,76.80
2018-12-27T08:19:29.353Z,76.90
2018-12-27T08:20:34.747Z,77.00
2018-12-27T08:21:39.240Z,77.00
2018-12-27T08:22:43.831Z,77.00
2018-12-27T08:23:48.556Z,77.00
2018-12-27T08:24:53.046Z,77.00
2018-12-27T08:25:57.587Z,77.00
2018-12-27T08:27:02.095Z,77.10
2018-12-27T08:28:06.598Z,77.10
2018-12-27T08:29:11.161Z,77.00
2018-12-27T08:30:15.635Z,77.00
2018-12-27T08:31:20.129Z,77.10
2018-12-27T08:32:24.598Z,77.00
2018-12-27T08:33:29.118Z,77.00
2018-12-27T08:34:33.650Z,77.00
2018-12-27T08:35:38.143Z,77.00
2018-12-27T08:36:42.641Z,77.20
2018-12-27T08:37:47.137Z,77.10
2018-12-27T08:38:51.818Z,77.10
2018-12-27T08:39:56.389Z,77.00
2018-12-27T08:41:00.850Z,77.00
2018-12-27T08:42:05.320Z,77.00
2018-12-27T08:43:09.807Z,77.00
2018-12-27T08:44:14.309Z,77.10
2018-12-27T08:45:18.795Z,77.00
2018-12-27T08:46:23.291Z,77.00
2018-12-27T08:47:27.779Z,77.00
2018-12-27T08:48:32.320Z,77.20
2018-12-27T08:49:36.900Z,77.00
2018-12-27T08:50:41.412Z,77.00
2018-12-27T08:51:46.148Z,77.00
2018-12-27T08:52:50.607Z,76.90
2018-12-27T08:53:55.490Z,76.90
2018-12-27T08:55:00.259Z,76.90
2018-12-27T08:56:05.374Z,76.80
2018-12-27T08:57:13.103Z,77.00
2018-12-27T08:58:18.139Z,76.90
2018-12-27T08:59:22.748Z,77.10
2018-12-27T09:00:27.251Z,77.10
2018-12-27T09:01:31.723Z,77.90
2018-12-27T09:02:36.285Z,77.20
2018-12-27T09:03:40.950Z,77.20
2018-12-27T09:04:45.836Z,77.80
2018-12-27T09:05:50.319Z,77.30
2018-12-27T09:06:55.352Z,77.20
2018-12-27T09:07:59.874Z,77.30
2018-12-27T09:09:06.090Z,77.30
2018-12-27T09:10:10.607Z,77.10
2018-12-27T09:11:15.094Z,77.20
2018-12-27T09:12:19.674Z,77.10
2018-12-27T09:13:25.687Z,77.10
2018-12-27T09:14:30.219Z,77.50
2018-12-27T09:15:34.705Z,77.30
2018-12-27T09:16:39.176Z,77.30
2018-12-27T09:17:43.758Z,77.30
2018-12-27T09:18:48.270Z,77.40
2018-12-27T09:19:53.517Z,77.30
2018-12-27T09:20:59.647Z,77.30
2018-12-27T09:22:04.140Z,77.40
2018-12-27T09:23:08.621Z,77.30
2018-12-27T09:24:13.276Z,77.40
2018-12-27T09:25:17.737Z,77.40
2018-12-27T09:26:22.205Z,77.40
2018-12-27T09:27:26.683Z,77.30
2018-12-27T09:28:31.330Z,77.50
2018-12-27T09:29:35.949Z,77.50
2018-12-27T09:30:40.414Z,77.50
2018-12-27T09:31:44.895Z,77.50
2018-12-27T09:32:49.398Z,77.50
2018-12-27T09:33:53.935Z,77.50
2018-12-27T09:34:58.429Z,77.40
2018-12-27T09:36:02.921Z,77.40
2018-12-27T09:37:07.382Z,77.50
2018-12-27T09:38:11.873Z,77.50
2018-12-27T09:39:16.353Z,77.50
2018-12-27T09:40:20.834Z,77.50
2018-12-27T09:41:25.312Z,77.50
2018-12-27T09:42:30.023Z,77.50
2018-12-27T09:43:34.493Z,77.50
2018-12-27T09:44:39.003Z,77.40
2018-12-27T09:45:43.473Z,77.30
2018-12-27T09:46:48.020Z,77.30
2018-12-27T09:47:52.526Z,77.30
2018-12-27T09:48:56.994Z,77.30
2018-12-27T09:50:01.498Z,77.20
2018-12-27T09:51:05.985Z,77.30
2018-12-27T09:52:10.573Z,77.20
2018-12-27T09:53:15.088Z,77.20
2018-12-27T09:54:19.579Z,77.30
2018-12-27T09:55:24.033Z,77.10
2018-12-27T09:56:28.508Z,77.30
2018-12-27T09:57:33.083Z,77.10
2018-12-27T09:58:37.571Z,77.10
2018-12-27T09:59:42.135Z,77.20
2018-12-27T10:00:46.648Z,77.20
2018-12-27T10:01:51.191Z,77.30
2018-12-27T10:02:55.768Z,77.20
2018-12-27T10:04:00.532Z,77.00
2018-12-27T10:05:05.705Z,77.20
2018-12-27T10:06:10.216Z,77.00
2018-12-27T10:07:16.204Z,77.00
2018-12-27T10:08:20.698Z,76.90
2018-12-27T10:09:25.252Z,76.90
2018-12-27T10:10:29.779Z,77.10
2018-12-27T10:11:34.262Z,77.00
2018-12-27T10:12:38.754Z,77.00
2018-12-27T10:13:43.239Z,77.20
2018-12-27T10:14:47.705Z,77.20
2018-12-27T10:15:52.184Z,77.20
2018-12-27T10:16:56.659Z,77.20
2018-12-27T10:18:01.149Z,77.30
2018-12-27T10:19:05.639Z,77.20
2018-12-27T10:20:10.121Z,77.10
2018-12-27T10:21:14.584Z,77.00
2018-12-27T10:22:19.062Z,76.90
2018-12-27T10:23:23.615Z,77.00
2018-12-27T10:24:28.192Z,76.90
2018-12-27T10:25:32.713Z,76.80
2018-12-27T10:26:37.195Z,76.80
2018-12-27T10:27:41.648Z,76.80
2018-12-27T10:28:46.131Z,76.70
2018-12-27T10:29:50.677Z,76.70
2018-12-27T10:30:59.795Z,76.60
2018-12-27T10:32:01.351Z,76.50
2018-12-27T10:33:05.818Z,76.50
2018-12-27T10:34:10.312Z,76.50
2018-12-27T10:35:14.793Z,76.40
2018-12-27T10:36:19.354Z,76.30
2018-12-27T10:37:23.869Z,76.10
2018-12-27T10:38:28.550Z,76.00
2018-12-27T10:39:33.050Z,76.30
2018-12-27T10:40:37.622Z,75.60
2018-12-27T10:41:42.240Z,75.50
2018-12-27T10:42:46.725Z,75.40
2018-12-27T10:43:51.196Z,75.50
2018-12-27T10:44:55.680Z,75.30
2018-12-27T10:46:00.289Z,75.20
2018-12-27T10:47:04.961Z,75.00
2018-12-27T10:48:09.461Z,74.90
2018-12-27T10:49:14.237Z,74.90
2018-12-27T10:50:18.810Z,74.60
2018-12-27T10:51:23.293Z,74.60
2018-12-27T10:52:27.794Z,74.60
2018-12-27T10:53:32.265Z,74.60
2018-12-27T10:54:36.747Z,74.50
2018-12-27T10:55:41.418Z,74.70
2018-12-27T10:56:46.018Z,74.30
2018-12-27T10:57:50.512Z,74.30
2018-12-27T10:58:55.072Z,74.30
2018-12-27T10:59:59.567Z,74.30
2018-12-27T11:01:04.029Z,74.00
2018-12-27T11:02:08.563Z,73.90
2018-12-27T11:03:13.075Z,73.80
2018-12-27T11:04:18.285Z,73.60
2018-12-27T11:05:22.762Z,73.50
2018-12-27T11:06:27.246Z,73.60
2018-12-27T11:07:31.718Z,73.20
2018-12-27T11:08:36.479Z,73.10
2018-12-27T11:09:41.046Z,73.10
2018-12-27T11:10:45.564Z,73.10
2018-12-27T11:11:50.039Z,73.10
2018-12-27T11:12:54.493Z,73.10
2018-12-27T11:13:59.385Z,73.10
2018-12-27T11:15:05.116Z,73.00
2018-12-27T11:16:09.974Z,72.90
2018-12-27T11:17:14.475Z,72.90
2018-12-27T11:18:18.934Z,72.70
2018-12-27T11:19:23.429Z,72.60
2018-12-27T11:20:27.928Z,72.40
2018-12-27T11:21:32.416Z,72.30
2018-12-27T11:22:37.167Z,72.10
2018-12-27T11:23:41.900Z,72.00
2018-12-27T11:24:46.396Z,72.00
2018-12-27T11:25:50.876Z,71.90
2018-12-27T11:26:55.602Z,71.70
2018-12-27T11:28:00.091Z,71.40
2018-12-27T11:29:04.589Z,71.40
2018-12-27T11:30:09.452Z,71.40
2018-12-27T11:31:14.507Z,71.40
2018-12-27T11:32:19.062Z,71.30
2018-12-27T11:33:23.571Z,71.40
2018-12-27T11:34:28.046Z,71.40
2018-12-27T11:35:32.538Z,71.40
2018-12-27T11:36:37.532Z,71.40
2018-12-27T11:37:42.469Z,71.60
2018-12-27T11:38:46.969Z,71.60
2018-12-27T11:39:51.466Z,71.50
2018-12-27T11:40:55.960Z,71.70
2018-12-27T11:42:00.440Z,71.80
2018-12-27T11:43:05.053Z,71.90
2018-12-27T11:44:09.562Z,72.80
2018-12-27T11:45:14.414Z,72.20
2018-12-27T11:46:19.035Z,72.40
2018-12-27T11:47:23.535Z,72.60
2018-12-27T11:48:28.279Z,73.10
2018-12-27T11:49:33.031Z,73.00
2018-12-27T11:50:37.511Z,73.10
2018-12-27T11:51:42.561Z,73.40
2018-12-27T11:52:48.738Z,73.80
2018-12-27T11:53:53.432Z,74.30
2018-12-27T11:54:58.171Z,74.80
2018-12-27T11:56:03.116Z,75.30
2018-12-27T11:57:09.230Z,76.10
2018-12-27T11:58:13.779Z,77.30
2018-12-27T11:59:18.323Z,78.70
2018-12-27T12:00:23.400Z,79.80
2018-12-27T12:01:27.937Z,81.40
2018-12-27T12:02:32.423Z,82.10
2018-12-27T12:03:37.276Z,83.20
2018-12-27T12:04:41.882Z,83.60
2018-12-27T12:05:46.411Z,83.10
2018-12-27T12:06:50.886Z,83.10
2018-12-27T12:07:55.674Z,81.70
2018-12-27T12:09:00.196Z,80.20
2018-12-27T12:10:06.876Z,79.10
2018-12-27T12:11:11.422Z,77.90
2018-12-27T12:12:15.940Z,76.70
2018-12-27T12:13:20.433Z,75.30
2018-12-27T12:14:24.954Z,74.40
2018-12-27T12:15:29.727Z,73.50
2018-12-27T12:16:34.366Z,72.50
2018-12-27T12:17:38.843Z,71.40
2018-12-27T12:18:43.343Z,70.80
2018-12-27T12:19:48.487Z,70.30
2018-12-27T12:20:53.082Z,70.10
2018-12-27T12:21:57.592Z,70.40
2018-12-27T12:23:02.086Z,70.90
2018-12-27T12:24:06.598Z,71.40
2018-12-27T12:25:11.110Z,71.90
2018-12-27T12:26:15.622Z,72.90
2018-12-27T12:27:20.130Z,73.50
2018-12-27T12:28:24.623Z,74.10
2018-12-27T12:29:29.170Z,74.10
2018-12-27T12:30:33.663Z,74.00
2018-12-27T12:31:38.188Z,73.40
2018-12-27T12:32:42.664Z,72.60
2018-12-27T12:33:47.184Z,72.00
2018-12-27T12:34:51.667Z,71.50
2018-12-27T12:35:56.181Z,70.60
2018-12-27T12:37:00.927Z,69.70
2018-12-27T12:38:05.783Z,68.70
2018-12-27T12:39:10.379Z,67.60
2018-12-27T12:40:16.427Z,66.50
2018-12-27T12:41:20.974Z,65.40
2018-12-27T12:42:32.903Z,64.70
2018-12-27T12:43:31.688Z,63.80
2018-12-27T12:44:36.156Z,63.00
2018-12-27T12:45:40.648Z,62.40
2018-12-27T12:46:45.199Z,61.80
2018-12-27T12:47:49.812Z,61.40
2018-12-27T12:48:54.335Z,61.20
2018-12-27T12:49:58.816Z,61.00
2018-12-27T12:51:03.334Z,60.80
2018-12-27T12:52:10.903Z,60.70
2018-12-27T12:53:15.394Z,60.30
2018-12-27T12:54:19.883Z,60.10
2018-12-27T12:55:24.615Z,60.00
2018-12-27T12:56:29.145Z,59.80
2018-12-27T12:57:33.657Z,60.00
2018-12-27T12:58:38.167Z,59.60
2018-12-27T12:59:42.643Z,59.80
2018-12-27T13:00:47.113Z,60.00
2018-12-27T13:01:51.604Z,60.00
2018-12-27T13:02:56.114Z,60.20
2018-12-27T13:04:00.631Z,60.30
2018-12-27T13:05:05.954Z,60.50
2018-12-27T13:06:17.797Z,60.60
2018-12-27T13:07:16.630Z,60.70
2018-12-27T13:08:21.078Z,60.70
2018-12-27T13:09:25.840Z,60.80
2018-12-27T13:10:30.327Z,60.70
2018-12-27T13:11:34.829Z,60.50
2018-12-27T13:12:39.331Z,60.80
2018-12-27T13:13:43.826Z,61.00
2018-12-27T13:14:48.308Z,61.10
2018-12-27T13:15:54.700Z,61.20
2018-12-27T13:16:59.195Z,61.20
2018-12-27T13:18:03.717Z,61.20
2018-12-27T13:19:08.354Z,61.30
2018-12-27T13:20:12.829Z,61.20
2018-12-27T13:21:17.329Z,61.40
2018-12-27T13:22:22.135Z,61.40
2018-12-27T13:23:26.636Z,61.40
2018-12-27T13:24:31.178Z,61.40
2018-12-27T13:25:35.700Z,61.40
2018-12-27T13:26:40.325Z,61.60
2018-12-27T13:27:44.800Z,61.60
2018-12-27T13:28:49.493Z,61.90
2018-12-27T13:29:53.969Z,61.90
2018-12-27T13:30:58.459Z,61.80
2018-12-27T13:32:04.129Z,61.80
2018-12-27T13:33:08.636Z,61.80
2018-12-27T13:34:13.111Z,62.00
2018-12-27T13:35:17.749Z,62.10
2018-12-27T13:36:25.560Z,62.10
2018-12-27T13:37:30.257Z,62.10
2018-12-27T13:38:34.779Z,62.20
2018-12-27T13:39:39.285Z,63.30
2018-12-27T13:40:44.059Z,63.20
2018-12-27T13:41:48.606Z,62.60
2018-12-27T13:42:53.187Z,62.50
2018-12-27T13:43:57.724Z,62.70
2018-12-27T13:45:02.211Z,62.90
2018-12-27T13:46:08.483Z,62.90
2018-12-27T13:47:13.022Z,63.20
2018-12-27T13:48:17.497Z,63.30
2018-12-27T13:49:22.003Z,63.60
2018-12-27T13:50:26.887Z,63.60
2018-12-27T13:51:31.364Z,63.70
2018-12-27T13:52:35.852Z,63.90
2018-12-27T13:53:40.364Z,63.90